sensor_id;sensor_type;location;lat;lon;timestamp;pressure;altitude;pressure_sealevel;temperature;humidity
13974;BME280;7060;43.770;4.008;2024-02-28T00:00:06;100538.91;;;11.64;49.07
13974;BME280;7060;43.770;4.008;2024-02-28T00:02:37;100544.25;;;11.64;49.09
13974;BME280;7060;43.770;4.008;2024-02-28T00:05:06;100545.78;;;11.67;49.01
13974;BME280;7060;43.770;4.008;2024-02-28T00:07:34;100545.47;;;11.70;48.69
13974;BME280;7060;43.770;4.008;2024-02-28T00:10:02;100550.69;;;11.71;48.87
13974;BME280;7060;43.770;4.008;2024-02-28T00:12:30;100545.63;;;11.68;49.00
13974;BME280;7060;43.770;4.008;2024-02-28T00:15:00;100554.66;;;11.67;49.26
13974;BME280;7060;43.770;4.008;2024-02-28T00:17:28;100549.59;;;11.64;48.67
13974;BME280;7060;43.770;4.008;2024-02-28T00:19:56;100557.63;;;11.64;48.68
13974;BME280;7060;43.770;4.008;2024-02-28T00:22:24;100553.94;;;11.65;48.80
13974;BME280;7060;43.770;4.008;2024-02-28T00:24:52;100561.13;;;11.65;48.64
13974;BME280;7060;43.770;4.008;2024-02-28T00:27:20;100563.66;;;11.66;48.36
13974;BME280;7060;43.770;4.008;2024-02-28T00:29:48;100561.13;;;11.65;48.81
13974;BME280;7060;43.770;4.008;2024-02-28T00:32:17;100565.47;;;11.66;48.70
13974;BME280;7060;43.770;4.008;2024-02-28T00:34:45;100560.44;;;11.63;48.77
13974;BME280;7060;43.770;4.008;2024-02-28T00:37:13;100575.78;;;11.61;49.21
13974;BME280;7060;43.770;4.008;2024-02-28T00:39:43;100563.41;;;11.60;49.22
13974;BME280;7060;43.770;4.008;2024-02-28T00:42:11;100545.50;;;11.42;49.04
13974;BME280;7060;43.770;4.008;2024-02-28T00:44:39;100570.03;;;11.56;49.35
13974;BME280;7060;43.770;4.008;2024-02-28T00:47:09;100564.84;;;11.54;49.37
13974;BME280;7060;43.770;4.008;2024-02-28T00:49:38;100569.34;;;11.53;49.16
13974;BME280;7060;43.770;4.008;2024-02-28T00:52:06;100568.50;;;11.53;48.75
13974;BME280;7060;43.770;4.008;2024-02-28T00:54:34;100570.88;;;11.56;48.95
13974;BME280;7060;43.770;4.008;2024-02-28T00:57:03;100573.84;;;11.53;49.35
13974;BME280;7060;43.770;4.008;2024-02-28T00:59:31;100575.13;;;11.49;49.25
13974;BME280;7060;43.770;4.008;2024-02-28T01:01:59;100577.50;;;11.52;49.25
13974;BME280;7060;43.770;4.008;2024-02-28T01:04:27;100515.69;;;11.19;49.44
13974;BME280;7060;43.770;4.008;2024-02-28T01:06:56;100580.47;;;11.49;48.85
13974;BME280;7060;43.770;4.008;2024-02-28T01:09:24;100574.84;;;11.52;48.86
13974;BME280;7060;43.770;4.008;2024-02-28T01:11:52;100575.53;;;11.54;49.39
13974;BME280;7060;43.770;4.008;2024-02-28T01:14:20;100586.53;;;11.51;49.20
13974;BME280;7060;43.770;4.008;2024-02-28T01:16:48;100574.31;;;11.48;49.28
13974;BME280;7060;43.770;4.008;2024-02-28T01:19:16;100596.06;;;11.53;49.06
13974;BME280;7060;43.770;4.008;2024-02-28T01:21:44;100568.63;;;11.34;49.83
13974;BME280;7060;43.770;4.008;2024-02-28T01:24:14;100596.78;;;11.56;49.57
13974;BME280;7060;43.770;4.008;2024-02-28T01:26:42;100603.94;;;11.55;50.00
13974;BME280;7060;43.770;4.008;2024-02-28T01:29:10;100607.47;;;11.56;49.77
13974;BME280;7060;43.770;4.008;2024-02-28T01:31:38;100591.34;;;11.47;49.86
13974;BME280;7060;43.770;4.008;2024-02-28T01:34:06;100601.69;;;11.60;49.63
13974;BME280;7060;43.770;4.008;2024-02-28T01:36:34;100615.19;;;11.59;49.81
13974;BME280;7060;43.770;4.008;2024-02-28T01:39:03;100610.69;;;11.59;50.02
13974;BME280;7060;43.770;4.008;2024-02-28T01:41:32;100626.72;;;11.59;49.91
13974;BME280;7060;43.770;4.008;2024-02-28T01:44:00;100632.06;;;11.59;50.07
13974;BME280;7060;43.770;4.008;2024-02-28T01:46:29;100619.53;;;11.60;50.14
13974;BME280;7060;43.770;4.008;2024-02-28T01:48:59;100637.28;;;11.61;49.95
13974;BME280;7060;43.770;4.008;2024-02-28T01:51:27;100639.94;;;11.61;49.92
13974;BME280;7060;43.770;4.008;2024-02-28T01:53:56;100636.81;;;11.65;49.75
13974;BME280;7060;43.770;4.008;2024-02-28T01:56:24;100633.47;;;11.63;49.69
13974;BME280;7060;43.770;4.008;2024-02-28T01:58:55;100646.53;;;11.66;49.42
13974;BME280;7060;43.770;4.008;2024-02-28T02:01:26;100645.69;;;11.66;50.14
13974;BME280;7060;43.770;4.008;2024-02-28T02:03:54;100655.97;;;11.61;49.96
13974;BME280;7060;43.770;4.008;2024-02-28T02:06:22;100661.31;;;11.61;49.78
13974;BME280;7060;43.770;4.008;2024-02-28T02:08:50;100662.16;;;11.61;50.15
13974;BME280;7060;43.770;4.008;2024-02-28T02:11:18;100660.78;;;11.57;50.18
13974;BME280;7060;43.770;4.008;2024-02-28T02:13:50;100674.69;;;11.61;49.53
13974;BME280;7060;43.770;4.008;2024-02-28T02:16:20;100666.69;;;11.61;49.71
13974;BME280;7060;43.770;4.008;2024-02-28T02:18:49;100675.69;;;11.60;49.81
13974;BME280;7060;43.770;4.008;2024-02-28T02:21:18;100681.19;;;11.58;49.90
13974;BME280;7060;43.770;4.008;2024-02-28T02:23:48;100664.34;;;11.48;49.27
13974;BME280;7060;43.770;4.008;2024-02-28T02:26:16;100683.00;;;11.58;49.68
13974;BME280;7060;43.770;4.008;2024-02-28T02:28:44;100669.69;;;11.48;49.83
13974;BME280;7060;43.770;4.008;2024-02-28T02:31:13;100646.81;;;11.36;50.07
13974;BME280;7060;43.770;4.008;2024-02-28T02:33:41;100694.00;;;11.54;49.76
13974;BME280;7060;43.770;4.008;2024-02-28T02:36:09;100685.28;;;11.52;49.79
13974;BME280;7060;43.770;4.008;2024-02-28T02:38:37;100697.50;;;11.55;49.64
13974;BME280;7060;43.770;4.008;2024-02-28T02:41:06;100709.75;;;11.58;49.55
13974;BME280;7060;43.770;4.008;2024-02-28T02:43:34;100708.91;;;11.57;49.64
13974;BME280;7060;43.770;4.008;2024-02-28T02:46:03;100710.72;;;11.57;50.10
13974;BME280;7060;43.770;4.008;2024-02-28T02:48:31;100719.72;;;11.56;49.94
13974;BME280;7060;43.770;4.008;2024-02-28T02:50:59;100718.06;;;11.54;50.16
13974;BME280;7060;43.770;4.008;2024-02-28T02:53:28;100725.50;;;11.51;50.19
13974;BME280;7060;43.770;4.008;2024-02-28T02:55:56;100731.00;;;11.49;49.75
13974;BME280;7060;43.770;4.008;2024-02-28T02:58:25;100729.72;;;11.53;50.08
13974;BME280;7060;43.770;4.008;2024-02-28T03:00:53;100704.63;;;11.37;50.25
13974;BME280;7060;43.770;4.008;2024-02-28T03:03:21;100739.72;;;11.51;49.93
13974;BME280;7060;43.770;4.008;2024-02-28T03:05:49;100737.38;;;11.48;50.13
13974;BME280;7060;43.770;4.008;2024-02-28T03:08:17;100740.19;;;11.47;49.72
13974;BME280;7060;43.770;4.008;2024-02-28T03:10:45;100754.22;;;11.49;49.88
13974;BME280;7060;43.770;4.008;2024-02-28T03:13:13;100725.56;;;11.41;49.95
13974;BME280;7060;43.770;4.008;2024-02-28T03:15:42;100756.47;;;11.53;50.08
13974;BME280;7060;43.770;4.008;2024-02-28T03:18:10;100752.25;;;11.51;49.63
13974;BME280;7060;43.770;4.008;2024-02-28T03:20:39;100765.75;;;11.49;50.07
13974;BME280;7060;43.770;4.008;2024-02-28T03:23:07;100770.56;;;11.46;50.20
13974;BME280;7060;43.770;4.008;2024-02-28T03:25:35;100766.22;;;11.45;50.34
13974;BME280;7060;43.770;4.008;2024-02-28T03:28:03;100763.13;;;11.40;50.85
13974;BME280;7060;43.770;4.008;2024-02-28T03:30:31;100768.88;;;11.45;50.57
13974;BME280;7060;43.770;4.008;2024-02-28T03:33:01;100774.94;;;11.47;50.19
13974;BME280;7060;43.770;4.008;2024-02-28T03:35:29;100771.97;;;11.40;50.13
13974;BME280;7060;43.770;4.008;2024-02-28T03:37:57;100743.06;;;11.16;50.43
13974;BME280;7060;43.770;4.008;2024-02-28T03:40:25;100781.13;;;11.38;50.31
13974;BME280;7060;43.770;4.008;2024-02-28T03:42:53;100734.47;;;11.13;50.68
13974;BME280;7060;43.770;4.008;2024-02-28T03:45:22;100783.66;;;11.39;50.83
13974;BME280;7060;43.770;4.008;2024-02-28T03:47:50;100778.47;;;11.38;50.82
13974;BME280;7060;43.770;4.008;2024-02-28T03:50:20;100780.44;;;11.36;50.43
13974;BME280;7060;43.770;4.008;2024-02-28T03:52:48;100783.25;;;11.34;50.54
13974;BME280;7060;43.770;4.008;2024-02-28T03:55:16;100784.38;;;11.32;50.28
13974;BME280;7060;43.770;4.008;2024-02-28T03:57:46;100783.25;;;11.34;50.73
13974;BME280;7060;43.770;4.008;2024-02-28T04:00:15;100783.38;;;11.33;50.60
13974;BME280;7060;43.770;4.008;2024-02-28T04:02:44;100780.00;;;11.31;50.76
13974;BME280;7060;43.770;4.008;2024-02-28T04:05:12;100790.00;;;11.29;51.41
13974;BME280;7060;43.770;4.008;2024-02-28T04:07:41;100795.63;;;11.26;51.65
13974;BME280;7060;43.770;4.008;2024-02-28T04:10:09;100781.59;;;11.14;52.27
13974;BME280;7060;43.770;4.008;2024-02-28T04:12:38;100776.81;;;11.08;51.85
13974;BME280;7060;43.770;4.008;2024-02-28T04:15:06;100793.69;;;11.18;51.63
13974;BME280;7060;43.770;4.008;2024-02-28T04:17:37;100795.66;;;11.16;51.66
13974;BME280;7060;43.770;4.008;2024-02-28T04:20:08;100792.00;;;11.17;51.64
13974;BME280;7060;43.770;4.008;2024-02-28T04:22:36;100802.97;;;11.14;51.64
13974;BME280;7060;43.770;4.008;2024-02-28T04:25:08;100805.50;;;11.15;51.49
13974;BME280;7060;43.770;4.008;2024-02-28T04:27:36;100809.16;;;11.14;51.40
13974;BME280;7060;43.770;4.008;2024-02-28T04:30:05;100806.63;;;11.13;51.29
13974;BME280;7060;43.770;4.008;2024-02-28T04:32:33;100813.66;;;11.14;51.10
13974;BME280;7060;43.770;4.008;2024-02-28T04:35:02;100812.78;;;11.13;51.37
13974;BME280;7060;43.770;4.008;2024-02-28T04:37:30;100810.25;;;11.12;51.45
13974;BME280;7060;43.770;4.008;2024-02-28T04:39:58;100819.97;;;11.13;51.45
13974;BME280;7060;43.770;4.008;2024-02-28T04:42:28;100822.38;;;11.16;51.61
13974;BME280;7060;43.770;4.008;2024-02-28T04:44:56;100817.44;;;11.11;51.70
13974;BME280;7060;43.770;4.008;2024-02-28T04:47:24;100830.78;;;11.11;51.35
13974;BME280;7060;43.770;4.008;2024-02-28T04:50:02;100836.28;;;11.10;51.66
13974;BME280;7060;43.770;4.008;2024-02-28T04:52:31;100834.44;;;11.10;51.71
13974;BME280;7060;43.770;4.008;2024-02-28T04:54:59;100831.91;;;11.09;51.94
13974;BME280;7060;43.770;4.008;2024-02-28T04:57:29;100833.59;;;11.10;51.96
13974;BME280;7060;43.770;4.008;2024-02-28T04:59:57;100836.56;;;11.07;51.69
13974;BME280;7060;43.770;4.008;2024-02-28T05:02:25;100835.56;;;11.46;50.96
13974;BME280;7060;43.770;4.008;2024-02-28T05:04:53;100836.41;;;11.28;51.72
13974;BME280;7060;43.770;4.008;2024-02-28T05:07:21;100846.28;;;11.17;51.95
13974;BME280;7060;43.770;4.008;2024-02-28T05:09:49;100844.84;;;11.13;51.62
13974;BME280;7060;43.770;4.008;2024-02-28T05:12:17;100840.78;;;11.09;51.96
13974;BME280;7060;43.770;4.008;2024-02-28T05:14:47;100850.47;;;11.10;52.38
13974;BME280;7060;43.770;4.008;2024-02-28T05:17:18;100844.56;;;11.07;52.51
13974;BME280;7060;43.770;4.008;2024-02-28T05:19:46;100849.06;;;11.06;52.27
13974;BME280;7060;43.770;4.008;2024-02-28T05:22:14;100850.88;;;11.06;52.31
13974;BME280;7060;43.770;4.008;2024-02-28T05:24:45;100846.25;;;11.08;51.96
13974;BME280;7060;43.770;4.008;2024-02-28T05:27:13;100847.66;;;11.02;52.29
13974;BME280;7060;43.770;4.008;2024-02-28T05:29:41;100858.34;;;11.02;51.76
13974;BME280;7060;43.770;4.008;2024-02-28T05:32:11;100859.31;;;11.01;52.01
13974;BME280;7060;43.770;4.008;2024-02-28T05:34:39;100862.00;;;11.01;51.73
13974;BME280;7060;43.770;4.008;2024-02-28T05:37:07;100859.19;;;11.03;51.85
13974;BME280;7060;43.770;4.008;2024-02-28T05:39:35;100861.84;;;11.03;51.81
13974;BME280;7060;43.770;4.008;2024-02-28T05:42:03;100869.16;;;11.01;51.29
13974;BME280;7060;43.770;4.008;2024-02-28T05:44:31;100870.84;;;11.02;51.78
13974;BME280;7060;43.770;4.008;2024-02-28T05:47:01;100873.38;;;11.03;51.60
13974;BME280;7060;43.770;4.008;2024-02-28T05:49:30;100869.59;;;11.06;51.09
13974;BME280;7060;43.770;4.008;2024-02-28T05:51:58;100875.22;;;11.03;51.03
13974;BME280;7060;43.770;4.008;2024-02-28T05:54:26;100884.19;;;11.02;51.26
13974;BME280;7060;43.770;4.008;2024-02-28T05:56:56;100889.53;;;11.02;51.32
13974;BME280;7060;43.770;4.008;2024-02-28T05:59:24;100888.69;;;11.01;51.48
13974;BME280;7060;43.770;4.008;2024-02-28T06:01:53;100856.50;;;10.83;51.39
13974;BME280;7060;43.770;4.008;2024-02-28T06:04:21;100883.34;;;11.01;51.32
13974;BME280;7060;43.770;4.008;2024-02-28T06:06:50;100895.47;;;11.05;51.13
13974;BME280;7060;43.770;4.008;2024-02-28T06:09:18;100900.78;;;11.05;51.68
13974;BME280;7060;43.770;4.008;2024-02-28T06:11:46;100882.06;;;10.96;51.65
13974;BME280;7060;43.770;4.008;2024-02-28T06:14:14;100877.19;;;10.91;51.27
13974;BME280;7060;43.770;4.008;2024-02-28T06:16:42;100895.47;;;11.05;51.81
13974;BME280;7060;43.770;4.008;2024-02-28T06:19:10;100902.75;;;11.03;51.39
13974;BME280;7060;43.770;4.008;2024-02-28T06:21:38;100903.03;;;11.00;51.40
13974;BME280;7060;43.770;4.008;2024-02-28T06:24:08;100907.41;;;11.01;51.51
13974;BME280;7060;43.770;4.008;2024-02-28T06:26:36;100912.03;;;10.99;51.56
13974;BME280;7060;43.770;4.008;2024-02-28T06:29:04;100910.06;;;11.01;51.53
13974;BME280;7060;43.770;4.008;2024-02-28T06:31:32;100922.72;;;10.99;51.49
13974;BME280;7060;43.770;4.008;2024-02-28T06:34:00;100913.00;;;10.98;51.45
13974;BME280;7060;43.770;4.008;2024-02-28T06:36:30;100926.38;;;10.98;51.24
13974;BME280;7060;43.770;4.008;2024-02-28T06:38:58;100933.13;;;11.02;51.23
13974;BME280;7060;43.770;4.008;2024-02-28T06:41:27;100936.94;;;11.09;51.64
13974;BME280;7060;43.770;4.008;2024-02-28T06:43:55;100933.44;;;11.09;51.70
13974;BME280;7060;43.770;4.008;2024-02-28T06:46:23;100943.00;;;11.11;51.31
13974;BME280;7060;43.770;4.008;2024-02-28T06:48:51;100948.06;;;11.14;51.58
13974;BME280;7060;43.770;4.008;2024-02-28T06:51:19;100918.50;;;11.06;51.15
13974;BME280;7060;43.770;4.008;2024-02-28T06:53:47;100942.84;;;11.23;50.75
13974;BME280;7060;43.770;4.008;2024-02-28T06:56:15;100951.03;;;11.31;50.78
13974;BME280;7060;43.770;4.008;2024-02-28T06:58:45;100953.72;;;11.40;50.60
13974;BME280;7060;43.770;4.008;2024-02-28T07:01:13;100948.94;;;11.44;50.50
13974;BME280;7060;43.770;4.008;2024-02-28T07:03:41;100946.00;;;11.47;50.56
13974;BME280;7060;43.770;4.008;2024-02-28T07:06:09;100945.03;;;11.48;50.27
13974;BME280;7060;43.770;4.008;2024-02-28T07:08:37;100943.59;;;11.53;50.51
13974;BME280;7060;43.770;4.008;2024-02-28T07:11:05;100942.19;;;11.59;50.37
13974;BME280;7060;43.770;4.008;2024-02-28T07:13:40;100936.56;;;11.62;50.61
13974;BME280;7060;43.770;4.008;2024-02-28T07:16:09;100949.38;;;11.68;50.40
13974;BME280;7060;43.770;4.008;2024-02-28T07:18:37;100958.81;;;11.72;50.72
13974;BME280;7060;43.770;4.008;2024-02-28T07:21:05;100962.03;;;11.76;50.76
13974;BME280;7060;43.770;4.008;2024-02-28T07:23:34;100965.56;;;11.86;50.06
13974;BME280;7060;43.770;4.008;2024-02-28T07:26:03;100962.63;;;11.89;50.55
13974;BME280;7060;43.770;4.008;2024-02-28T07:28:44;100975.56;;;11.94;50.25
13974;BME280;7060;43.770;4.008;2024-02-28T07:31:18;100973.03;;;12.02;50.12
13974;BME280;7060;43.770;4.008;2024-02-28T07:33:46;100987.50;;;12.09;50.32
13974;BME280;7060;43.770;4.008;2024-02-28T07:36:14;100958.81;;;12.01;50.15
13974;BME280;7060;43.770;4.008;2024-02-28T07:38:42;100993.41;;;12.22;50.56
13974;BME280;7060;43.770;4.008;2024-02-28T07:41:10;100993.00;;;12.27;49.58
13974;BME280;7060;43.770;4.008;2024-02-28T07:43:42;101000.88;;;12.28;48.87
13974;BME280;7060;43.770;4.008;2024-02-28T07:46:10;101001.25;;;12.33;49.72
13974;BME280;7060;43.770;4.008;2024-02-28T07:48:40;100992.22;;;12.53;49.05
13974;BME280;7060;43.770;4.008;2024-02-28T07:51:08;100983.94;;;12.84;48.87
13974;BME280;7060;43.770;4.008;2024-02-28T07:53:36;100986.03;;;13.17;48.21
13974;BME280;7060;43.770;4.008;2024-02-28T07:56:04;100983.00;;;13.48;47.62
13974;BME280;7060;43.770;4.008;2024-02-28T07:58:32;100975.72;;;13.76;46.88
13974;BME280;7060;43.770;4.008;2024-02-28T08:01:00;100979.47;;;14.01;45.92
13974;BME280;7060;43.770;4.008;2024-02-28T08:03:28;100992.75;;;14.28;46.00
13974;BME280;7060;43.770;4.008;2024-02-28T08:05:58;100992.31;;;14.59;44.75
13974;BME280;7060;43.770;4.008;2024-02-28T08:08:26;100994.75;;;14.78;44.95
13974;BME280;7060;43.770;4.008;2024-02-28T08:10:54;101009.81;;;14.97;44.40
13974;BME280;7060;43.770;4.008;2024-02-28T08:13:22;100996.06;;;15.08;43.19
13974;BME280;7060;43.770;4.008;2024-02-28T08:15:50;100994.75;;;15.12;43.78
13974;BME280;7060;43.770;4.008;2024-02-28T08:18:19;100997.31;;;15.21;43.79
13974;BME280;7060;43.770;4.008;2024-02-28T08:20:48;100991.28;;;15.28;42.78
13974;BME280;7060;43.770;4.008;2024-02-28T08:23:17;100996.66;;;15.28;42.53
13974;BME280;7060;43.770;4.008;2024-02-28T08:25:45;100996.78;;;15.18;43.21
13974;BME280;7060;43.770;4.008;2024-02-28T08:28:13;101008.34;;;15.10;43.85
13974;BME280;7060;43.770;4.008;2024-02-28T08:30:41;101017.09;;;15.04;42.88
13974;BME280;7060;43.770;4.008;2024-02-28T08:33:09;101011.63;;;14.88;43.12
13974;BME280;7060;43.770;4.008;2024-02-28T08:35:38;101003.19;;;14.83;44.05
13974;BME280;7060;43.770;4.008;2024-02-28T08:38:06;101013.25;;;14.81;43.36
13974;BME280;7060;43.770;4.008;2024-02-28T08:40:35;101012.41;;;14.80;43.89
13974;BME280;7060;43.770;4.008;2024-02-28T08:43:03;101012.06;;;14.75;43.21
13974;BME280;7060;43.770;4.008;2024-02-28T08:45:31;101023.44;;;14.69;43.89
13974;BME280;7060;43.770;4.008;2024-02-28T08:48:04;101014.91;;;14.74;44.06
13974;BME280;7060;43.770;4.008;2024-02-28T08:50:33;101031.22;;;14.80;43.78
13974;BME280;7060;43.770;4.008;2024-02-28T08:53:01;101026.06;;;14.87;44.46
13974;BME280;7060;43.770;4.008;2024-02-28T08:55:29;101019.22;;;14.93;43.94
13974;BME280;7060;43.770;4.008;2024-02-28T08:57:59;101025.44;;;14.93;43.36
13974;BME280;7060;43.770;4.008;2024-02-28T09:00:27;101035.81;;;14.88;43.60
13974;BME280;7060;43.770;4.008;2024-02-28T09:02:55;101030.28;;;14.89;44.10
13974;BME280;7060;43.770;4.008;2024-02-28T09:05:24;101034.81;;;14.89;42.48
13974;BME280;7060;43.770;4.008;2024-02-28T09:07:52;101047.19;;;14.82;43.35
13974;BME280;7060;43.770;4.008;2024-02-28T09:10:21;101048.09;;;14.90;42.91
13974;BME280;7060;43.770;4.008;2024-02-28T09:12:51;101056.78;;;14.84;42.18
13974;BME280;7060;43.770;4.008;2024-02-28T09:15:21;101047.16;;;14.74;42.57
13974;BME280;7060;43.770;4.008;2024-02-28T09:17:49;101053.31;;;14.66;42.67
13974;BME280;7060;43.770;4.008;2024-02-28T09:20:18;101061.22;;;14.68;43.10
13974;BME280;7060;43.770;4.008;2024-02-28T09:22:56;101060.28;;;14.77;43.27
13974;BME280;7060;43.770;4.008;2024-02-28T09:25:26;101044.72;;;14.63;42.99
13974;BME280;7060;43.770;4.008;2024-02-28T09:27:55;101068.91;;;14.63;43.34
13974;BME280;7060;43.770;4.008;2024-02-28T09:30:25;101076.13;;;14.62;43.14
13974;BME280;7060;43.770;4.008;2024-02-28T09:33:12;101086.56;;;14.65;43.26
13974;BME280;7060;43.770;4.008;2024-02-28T09:35:46;101092.16;;;14.72;43.65
13974;BME280;7060;43.770;4.008;2024-02-28T09:38:14;101096.00;;;14.69;43.54
13974;BME280;7060;43.770;4.008;2024-02-28T09:40:45;101104.38;;;14.66;43.50
13974;BME280;7060;43.770;4.008;2024-02-28T09:43:17;101103.06;;;14.52;43.04
13974;BME280;7060;43.770;4.008;2024-02-28T09:45:49;101102.63;;;14.39;43.36
13974;BME280;7060;43.770;4.008;2024-02-28T09:48:17;101089.41;;;14.28;43.63
13974;BME280;7060;43.770;4.008;2024-02-28T09:50:47;101107.91;;;14.31;44.01
13974;BME280;7060;43.770;4.008;2024-02-28T09:53:15;101107.75;;;14.33;44.58
13974;BME280;7060;43.770;4.008;2024-02-28T09:55:43;101114.81;;;14.34;43.92
13974;BME280;7060;43.770;4.008;2024-02-28T09:58:11;101114.56;;;14.27;43.65
13974;BME280;7060;43.770;4.008;2024-02-28T10:00:39;101128.31;;;14.24;43.69
13974;BME280;7060;43.770;4.008;2024-02-28T10:03:14;101126.47;;;14.24;43.75
13974;BME280;7060;43.770;4.008;2024-02-28T10:05:43;101129.31;;;14.23;43.30
13974;BME280;7060;43.770;4.008;2024-02-28T10:08:12;101127.09;;;14.18;43.61
13974;BME280;7060;43.770;4.008;2024-02-28T10:10:45;101124.19;;;14.12;44.52
13974;BME280;7060;43.770;4.008;2024-02-28T10:13:15;101130.78;;;14.17;44.90
13974;BME280;7060;43.770;4.008;2024-02-28T10:15:45;101124.63;;;14.25;44.66
13974;BME280;7060;43.770;4.008;2024-02-28T10:18:14;101132.38;;;14.28;44.53
13974;BME280;7060;43.770;4.008;2024-02-28T10:20:43;101133.53;;;14.26;43.71
13974;BME280;7060;43.770;4.008;2024-02-28T10:23:11;101136.69;;;14.21;44.40
13974;BME280;7060;43.770;4.008;2024-02-28T10:25:42;101140.03;;;14.23;44.45
13974;BME280;7060;43.770;4.008;2024-02-28T10:28:23;101137.31;;;14.15;44.39
13974;BME280;7060;43.770;4.008;2024-02-28T10:30:52;101128.25;;;14.16;45.01
13974;BME280;7060;43.770;4.008;2024-02-28T10:33:26;101136.47;;;14.14;45.37
13974;BME280;7060;43.770;4.008;2024-02-28T10:35:56;101133.63;;;14.16;45.43
13974;BME280;7060;43.770;4.008;2024-02-28T10:38:26;101133.00;;;14.22;44.72
13974;BME280;7060;43.770;4.008;2024-02-28T10:40:55;101131.16;;;14.22;44.43
13974;BME280;7060;43.770;4.008;2024-02-28T10:43:24;101144.66;;;14.31;44.71
13974;BME280;7060;43.770;4.008;2024-02-28T10:45:56;101145.03;;;14.36;44.45
13974;BME280;7060;43.770;4.008;2024-02-28T10:48:46;101147.28;;;14.40;44.14
13974;BME280;7060;43.770;4.008;2024-02-28T10:51:22;101156.31;;;14.39;44.25
13974;BME280;7060;43.770;4.008;2024-02-28T10:54:02;101149.41;;;14.37;44.05
13974;BME280;7060;43.770;4.008;2024-02-28T10:56:32;101148.56;;;14.36;44.46
13974;BME280;7060;43.770;4.008;2024-02-28T10:59:01;101153.38;;;14.42;44.40
13974;BME280;7060;43.770;4.008;2024-02-28T11:01:29;101155.75;;;14.45;44.51
13974;BME280;7060;43.770;4.008;2024-02-28T11:03:59;101171.22;;;14.51;43.90
13974;BME280;7060;43.770;4.008;2024-02-28T11:06:27;101178.78;;;14.48;44.03
13974;BME280;7060;43.770;4.008;2024-02-28T11:08:55;101185.59;;;14.42;43.28
13974;BME280;7060;43.770;4.008;2024-02-28T11:11:23;101173.84;;;14.43;44.13
13974;BME280;7060;43.770;4.008;2024-02-28T11:13:52;101174.13;;;14.40;43.94
13974;BME280;7060;43.770;4.008;2024-02-28T11:16:31;101169.47;;;14.60;43.76
13974;BME280;7060;43.770;4.008;2024-02-28T11:19:01;101169.53;;;14.68;43.66
13974;BME280;7060;43.770;4.008;2024-02-28T11:21:34;101170.53;;;14.67;43.63
13974;BME280;7060;43.770;4.008;2024-02-28T11:24:03;101169.69;;;14.67;43.04
13974;BME280;7060;43.770;4.008;2024-02-28T11:26:31;101164.78;;;14.62;42.85
13974;BME280;7060;43.770;4.008;2024-02-28T11:28:59;101169.47;;;14.60;42.79
13974;BME280;7060;43.770;4.008;2024-02-28T11:31:27;101168.16;;;14.64;43.03
13974;BME280;7060;43.770;4.008;2024-02-28T11:33:55;101162.72;;;14.74;43.46
13974;BME280;7060;43.770;4.008;2024-02-28T11:36:24;101155.22;;;14.85;43.73
13974;BME280;7060;43.770;4.008;2024-02-28T11:38:53;101168.72;;;14.94;44.50
13974;BME280;7060;43.770;4.008;2024-02-28T11:41:25;101155.13;;;14.95;43.16
13974;BME280;7060;43.770;4.008;2024-02-28T11:43:54;101159.44;;;15.14;43.62
13974;BME280;7060;43.770;4.008;2024-02-28T11:46:23;101157.81;;;15.21;43.80
13974;BME280;7060;43.770;4.008;2024-02-28T11:48:52;101149.75;;;15.21;43.02
13974;BME280;7060;43.770;4.008;2024-02-28T11:51:21;101164.03;;;15.21;42.53
13974;BME280;7060;43.770;4.008;2024-02-28T11:53:51;101154.75;;;15.16;42.53
13974;BME280;7060;43.770;4.008;2024-02-28T11:56:19;101148.53;;;15.15;42.76
13974;BME280;7060;43.770;4.008;2024-02-28T11:58:51;101154.53;;;15.09;42.10
13974;BME280;7060;43.770;4.008;2024-02-28T12:01:19;101159.91;;;15.09;42.83
13974;BME280;7060;43.770;4.008;2024-02-28T12:03:48;101164.66;;;15.15;43.40
13974;BME280;7060;43.770;4.008;2024-02-28T12:06:16;101154.97;;;15.22;42.63
13974;BME280;7060;43.770;4.008;2024-02-28T12:08:44;101148.81;;;15.30;43.44
13974;BME280;7060;43.770;4.008;2024-02-28T12:11:14;101154.84;;;15.32;42.38
13974;BME280;7060;43.770;4.008;2024-02-28T12:13:42;101141.53;;;15.22;42.03
13974;BME280;7060;43.770;4.008;2024-02-28T12:16:12;101155.97;;;15.21;42.49
13974;BME280;7060;43.770;4.008;2024-02-28T12:18:41;101141.38;;;15.24;42.21
13974;BME280;7060;43.770;4.008;2024-02-28T12:21:10;101141.06;;;15.27;42.29
13974;BME280;7060;43.770;4.008;2024-02-28T12:23:38;101130.63;;;15.32;41.56
13974;BME280;7060;43.770;4.008;2024-02-28T12:26:06;101140.72;;;15.30;42.73
13974;BME280;7060;43.770;4.008;2024-02-28T12:28:35;101064.38;;;14.89;42.85
13974;BME280;7060;43.770;4.008;2024-02-28T12:31:03;101133.69;;;15.37;43.63
13974;BME280;7060;43.770;4.008;2024-02-28T12:33:35;101139.06;;;15.37;42.74
13974;BME280;7060;43.770;4.008;2024-02-28T12:36:03;101131.16;;;15.36;42.17
13974;BME280;7060;43.770;4.008;2024-02-28T12:38:31;101129.84;;;15.40;42.61
13974;BME280;7060;43.770;4.008;2024-02-28T12:40:59;101116.09;;;15.51;42.04
13974;BME280;7060;43.770;4.008;2024-02-28T12:43:29;101114.75;;;15.47;41.87
13974;BME280;7060;43.770;4.008;2024-02-28T12:45:59;101119.59;;;15.43;42.85
13974;BME280;7060;43.770;4.008;2024-02-28T12:48:27;101116.38;;;15.40;41.93
13974;BME280;7060;43.770;4.008;2024-02-28T12:50:57;101113.53;;;15.41;41.93
13974;BME280;7060;43.770;4.008;2024-02-28T12:53:26;101121.28;;;15.44;41.78
13974;BME280;7060;43.770;4.008;2024-02-28T12:55:54;101121.50;;;15.51;41.90
13974;BME280;7060;43.770;4.008;2024-02-28T12:58:21;101137.31;;;15.54;42.66
13974;BME280;7060;43.770;4.008;2024-02-28T13:00:50;101131.78;;;15.55;41.34
13974;BME280;7060;43.770;4.008;2024-02-28T13:03:20;101120.22;;;15.63;41.11
13974;BME280;7060;43.770;4.008;2024-02-28T13:05:48;101125.63;;;15.71;41.39
13974;BME280;7060;43.770;4.008;2024-02-28T13:08:16;101124.81;;;15.87;41.33